CheckWX is a tool to help pilots better visualize weather data.  It is not intended as a substitute for an official pre-flight weather briefing.

17:19:28 UTC

LROP METAR
Henri Coandă International Airport
Bucharest, Romania
Current

19 mins ago

LROP 181700Z VRB02KT CAVOK 25/10 Q1016 NOSIG
Observed
Aug-18 @ 17:00 UTC
Wind
  • Variable at 2 KTS
Visibility
10,000+ meters
Flight Rules
VFR
Cloud Levels
  • Clear skies
Temperature
25°C / 77°F
Dewpoint
10°C / 50°F
Humidity
39%
Altimeter
30" Hg
Pressure
1015.92 hPa
Previous

49 mins ago

LROP 181630Z 29005KT CAVOK 26/11 Q1016 NOSIG
Observed
Aug-18 @ 16:30 UTC
Wind
  • 290° at 5 KTS
Visibility
10,000+ meters
Flight Rules
VFR
Cloud Levels
  • Clear skies
Temperature
26°C / 79°F
Dewpoint
11°C / 52°F
Humidity
39%
Altimeter
30" Hg
Pressure
1015.92 hPa
Previous

1 hour ago

LROP 181600Z 25005KT 220V280 CAVOK 28/11 Q1015 NOSIG
Observed
Aug-18 @ 16:00 UTC
Wind
  • 250° at 5 KTS
Visibility
10,000+ meters
Flight Rules
VFR
Cloud Levels
  • Clear skies
Temperature
28°C / 82°F
Dewpoint
11°C / 52°F
Humidity
35%
Altimeter
29.97" Hg
Pressure
1014.92 hPa